createdAt,value
2023-03-07T00:02:06.436Z,1.40
2023-03-07T00:04:33.898Z,1.43
2023-03-07T00:07:01.384Z,1.10
2023-03-07T00:09:29.037Z,1.20
2023-03-07T00:11:56.453Z,1.20
2023-03-07T00:14:23.764Z,0.77
2023-03-07T00:16:52.110Z,0.50
2023-03-07T00:19:19.995Z,1.23
2023-03-07T00:21:47.503Z,1.40
2023-03-07T00:24:15.016Z,1.97
2023-03-07T00:26:42.504Z,0.97
2023-03-07T00:29:10.973Z,1.43
2023-03-07T00:31:38.508Z,1.77
2023-03-07T00:34:06.104Z,1.90
2023-03-07T00:36:33.577Z,1.97
2023-03-07T00:39:00.915Z,2.20
2023-03-07T00:41:29.497Z,1.80
2023-03-07T00:43:57.263Z,1.90
2023-03-07T00:46:26.190Z,2.20
2023-03-07T00:48:53.933Z,1.87
2023-03-07T00:51:23.178Z,1.93
2023-03-07T00:53:51.089Z,1.67
2023-03-07T00:56:21.028Z,1.90
2023-03-07T00:58:49.015Z,2.40
2023-03-07T01:01:20.121Z,2.07
2023-03-07T01:03:53.845Z,1.97
2023-03-07T01:06:25.025Z,2.23
2023-03-07T01:08:53.013Z,2.17
2023-03-07T01:11:20.493Z,2.10
2023-03-07T01:13:47.881Z,2.40
2023-03-07T01:16:19.072Z,2.43
2023-03-07T01:18:50.119Z,2.40
2023-03-07T01:21:22.259Z,2.27
2023-03-07T01:23:50.068Z,2.20
2023-03-07T01:26:25.698Z,2.20
2023-03-07T01:28:55.357Z,2.30
2023-03-07T01:31:24.181Z,2.60
2023-03-07T01:33:53.462Z,2.37
2023-03-07T01:36:25.545Z,2.30
2023-03-07T01:38:55.917Z,2.70
2023-03-07T01:41:24.416Z,2.40
2023-03-07T01:43:51.872Z,2.37
2023-03-07T01:46:20.503Z,2.70
2023-03-07T01:48:54.250Z,2.80
2023-03-07T01:51:22.716Z,3.03
2023-03-07T01:53:52.302Z,2.20
2023-03-07T01:56:22.087Z,2.90
2023-03-07T01:58:50.703Z,2.33
2023-03-07T02:01:18.551Z,2.23
2023-03-07T02:03:45.907Z,2.33
2023-03-07T02:06:13.659Z,2.13
2023-03-07T02:08:43.897Z,1.97
2023-03-07T02:11:11.874Z,2.40
2023-03-07T02:13:39.442Z,2.30
2023-03-07T02:16:08.022Z,2.07
2023-03-07T02:18:43.820Z,1.80
2023-03-07T02:21:46.099Z,1.80
2023-03-07T02:24:50.490Z,1.43
2023-03-07T02:27:17.936Z,2.20
2023-03-07T02:29:45.427Z,1.67
2023-03-07T02:32:12.860Z,2.60
2023-03-07T02:34:40.300Z,2.40
2023-03-07T02:37:13.605Z,2.83
2023-03-07T02:39:43.382Z,2.10
2023-03-07T02:42:22.728Z,2.33
2023-03-07T02:44:58.817Z,2.67
2023-03-07T02:47:27.462Z,2.67
2023-03-07T02:49:55.266Z,2.73
2023-03-07T02:52:23.532Z,2.30
2023-03-07T02:54:51.172Z,2.30
2023-03-07T02:57:19.950Z,2.30
2023-03-07T02:59:47.646Z,2.20
2023-03-07T03:02:14.987Z,2.07
2023-03-07T03:04:42.376Z,2.00
2023-03-07T03:07:09.731Z,1.73
2023-03-07T03:09:37.243Z,2.07
2023-03-07T03:12:04.663Z,2.53
2023-03-07T03:14:32.696Z,2.33
2023-03-07T03:17:00.043Z,2.30
2023-03-07T03:19:29.766Z,2.10
2023-03-07T03:21:57.525Z,2.03
2023-03-07T03:24:25.665Z,2.33
2023-03-07T03:26:57.211Z,1.97
2023-03-07T03:29:25.639Z,2.23
2023-03-07T03:31:53.123Z,2.40
2023-03-07T03:34:20.656Z,1.63
2023-03-07T03:36:48.129Z,2.23
2023-03-07T03:39:15.573Z,2.17
2023-03-07T03:41:43.196Z,2.30
2023-03-07T03:44:10.772Z,2.20
2023-03-07T03:46:38.436Z,2.13
2023-03-07T03:49:05.975Z,2.40
2023-03-07T03:51:34.433Z,2.03
2023-03-07T03:54:01.853Z,2.70
2023-03-07T03:56:30.032Z,1.70
2023-03-07T03:58:57.940Z,2.53
2023-03-07T04:01:28.987Z,2.17
2023-03-07T04:03:58.223Z,2.80
2023-03-07T04:06:28.094Z,1.90
2023-03-07T04:08:56.551Z,2.17
2023-03-07T04:11:25.480Z,2.40
2023-03-07T04:13:53.385Z,1.93
2023-03-07T04:16:22.655Z,2.33
2023-03-07T04:18:53.176Z,2.77
2023-03-07T04:21:22.109Z,1.70
2023-03-07T04:23:50.601Z,2.20
2023-03-07T04:26:17.962Z,2.00
2023-03-07T04:28:45.355Z,2.70
2023-03-07T04:31:19.616Z,2.50
2023-03-07T04:33:47.560Z,2.37
2023-03-07T04:36:18.207Z,2.53
2023-03-07T04:38:47.040Z,2.97
2023-03-07T04:41:19.356Z,3.00
2023-03-07T04:43:47.021Z,2.33
2023-03-07T04:46:16.776Z,2.23
2023-03-07T04:48:44.899Z,2.37
2023-03-07T04:51:12.715Z,2.13
2023-03-07T04:53:40.284Z,2.10
2023-03-07T04:56:08.882Z,1.97
2023-03-07T04:58:36.816Z,2.50
2023-03-07T05:01:05.851Z,2.67
2023-03-07T05:03:34.157Z,2.50
2023-03-07T05:06:04.500Z,2.93
2023-03-07T05:08:32.644Z,2.50
2023-03-07T05:11:00.120Z,2.50
2023-03-07T05:13:28.189Z,3.13
2023-03-07T05:15:57.851Z,2.43
2023-03-07T05:18:26.906Z,2.33
2023-03-07T05:20:54.218Z,2.80
2023-03-07T05:23:21.759Z,2.67
2023-03-07T05:25:49.412Z,1.67
2023-03-07T05:28:17.568Z,2.17
2023-03-07T05:30:46.501Z,2.50
2023-03-07T05:33:15.051Z,2.70
2023-03-07T05:35:42.762Z,1.93
2023-03-07T05:38:10.848Z,2.03
2023-03-07T05:40:38.636Z,1.80
2023-03-07T05:43:06.518Z,2.07
2023-03-07T05:45:34.279Z,2.00
2023-03-07T05:48:01.790Z,3.10
2023-03-07T05:50:29.264Z,2.87
2023-03-07T05:52:56.672Z,2.60
2023-03-07T05:55:24.166Z,1.30
2023-03-07T05:57:51.727Z,2.23
2023-03-07T06:00:19.775Z,2.40
2023-03-07T06:02:47.340Z,2.50
2023-03-07T06:05:14.963Z,1.87
2023-03-07T06:07:42.516Z,2.67
2023-03-07T06:10:13.352Z,2.50
2023-03-07T06:12:41.679Z,3.13
2023-03-07T06:15:11.103Z,2.10
2023-03-07T06:17:40.695Z,2.33
2023-03-07T06:20:14.858Z,2.30
2023-03-07T06:22:42.288Z,1.80
2023-03-07T06:25:10.509Z,2.20
2023-03-07T06:27:39.825Z,2.10
2023-03-07T06:30:10.521Z,2.73
2023-03-07T06:32:38.217Z,2.37
2023-03-07T06:35:06.569Z,2.30
2023-03-07T06:37:41.576Z,1.67
2023-03-07T06:40:10.818Z,2.30
2023-03-07T06:42:39.836Z,2.40
2023-03-07T06:45:08.187Z,2.73
2023-03-07T06:47:35.611Z,2.53
2023-03-07T06:50:05.118Z,3.20
2023-03-07T06:52:32.911Z,3.47
2023-03-07T06:55:02.243Z,3.20
2023-03-07T06:57:44.758Z,2.87
2023-03-07T07:00:16.782Z,3.20
2023-03-07T07:02:44.360Z,2.37
2023-03-07T07:05:13.869Z,1.07
2023-03-07T07:07:42.103Z,3.30
2023-03-07T07:10:13.725Z,3.07
2023-03-07T07:12:41.539Z,3.67
2023-03-07T07:15:09.943Z,2.97
2023-03-07T07:17:39.683Z,3.63
2023-03-07T07:20:11.441Z,2.80
2023-03-07T07:22:38.857Z,3.83
2023-03-07T07:25:06.689Z,3.90
2023-03-07T07:27:34.311Z,3.60
2023-03-07T07:30:03.681Z,3.67
2023-03-07T07:32:32.318Z,4.10
2023-03-07T07:35:02.797Z,4.57
2023-03-07T07:37:31.067Z,3.93
2023-03-07T07:40:00.197Z,4.23
2023-03-07T07:42:30.683Z,3.60
2023-03-07T07:44:59.299Z,4.53
2023-03-07T07:47:26.866Z,3.77
2023-03-07T07:49:57.002Z,3.77
2023-03-07T07:52:28.868Z,2.60
2023-03-07T07:54:59.901Z,2.77
2023-03-07T07:57:28.000Z,3.60
2023-03-07T07:59:56.737Z,3.20
2023-03-07T08:02:27.784Z,3.53
2023-03-07T08:04:56.125Z,2.90
2023-03-07T08:07:25.152Z,3.20
2023-03-07T08:09:57.380Z,2.87
2023-03-07T08:12:27.936Z,3.30
2023-03-07T08:15:05.267Z,3.03
2023-03-07T08:17:34.153Z,3.10
2023-03-07T08:20:10.785Z,3.10
2023-03-07T08:22:40.652Z,2.60
2023-03-07T08:25:10.751Z,2.67
2023-03-07T08:27:39.239Z,2.47
2023-03-07T08:30:13.800Z,3.07
2023-03-07T08:35:27.394Z,2.77
2023-03-07T08:38:04.026Z,3.20
2023-03-07T08:40:36.093Z,2.73
2023-03-07T08:43:06.304Z,2.90
2023-03-07T08:45:40.209Z,2.63
2023-03-07T08:48:22.122Z,2.10
2023-03-07T08:59:09.991Z,2.90
2023-03-07T09:01:41.147Z,2.80
2023-03-07T09:04:08.871Z,2.70
2023-03-07T09:06:36.369Z,2.73
2023-03-07T09:09:04.430Z,3.30
2023-03-07T09:11:32.544Z,2.80
2023-03-07T09:14:00.056Z,3.20
2023-03-07T09:16:41.318Z,2.93
2023-03-07T09:22:10.942Z,2.00
2023-03-07T09:24:41.887Z,1.63
2023-03-07T09:28:40.911Z,1.53
2023-03-07T09:31:18.135Z,2.10
2023-03-07T09:33:50.906Z,2.53
2023-03-07T09:36:20.211Z,2.37
2023-03-07T09:38:55.213Z,2.87
2023-03-07T09:45:23.712Z,2.80
2023-03-07T09:57:55.479Z,2.17
2023-03-07T10:00:41.272Z,2.40
2023-03-07T10:24:31.086Z,2.00
2023-03-07T10:27:09.994Z,2.40
2023-03-07T10:29:46.805Z,2.20
2023-03-07T10:32:39.774Z,2.53
2023-03-07T10:35:24.626Z,2.27
2023-03-07T10:37:59.211Z,1.90
2023-03-07T10:40:36.202Z,1.90
2023-03-07T10:43:10.920Z,2.20
2023-03-07T10:45:38.804Z,2.17
2023-03-07T10:48:11.110Z,1.90
2023-03-07T10:50:46.036Z,2.10
2023-03-07T10:53:27.598Z,1.93
2023-03-07T10:56:11.533Z,2.00
2023-03-07T10:58:41.653Z,2.00
2023-03-07T11:01:12.248Z,2.03
2023-03-07T11:04:07.330Z,2.30
2023-03-07T11:06:51.149Z,2.17
2023-03-07T11:09:24.738Z,3.50
2023-03-07T11:12:00.313Z,2.03
2023-03-07T11:14:29.529Z,2.10
2023-03-07T11:17:03.105Z,2.30
2023-03-07T11:19:40.577Z,2.00
2023-03-07T11:22:25.095Z,1.90
2023-03-07T11:25:10.941Z,2.47
2023-03-07T11:27:47.786Z,1.73
2023-03-07T11:30:22.083Z,1.73
2023-03-07T11:32:59.305Z,1.87
2023-03-07T11:35:36.434Z,2.03
2023-03-07T11:38:31.969Z,2.17
2023-03-07T11:41:12.729Z,2.00
2023-03-07T11:53:30.588Z,1.70
2023-03-07T11:56:26.615Z,1.93
2023-03-07T11:59:01.216Z,1.93
2023-03-07T12:02:03.086Z,2.10
2023-03-07T12:05:22.447Z,1.80
2023-03-07T12:08:03.393Z,1.63
2023-03-07T12:11:24.482Z,1.77
2023-03-07T12:20:25.100Z,1.97
2023-03-07T12:23:25.818Z,2.00
2023-03-07T12:26:00.262Z,1.70
2023-03-07T12:28:53.249Z,1.93
2023-03-07T12:31:28.168Z,2.17
2023-03-07T12:40:34.942Z,1.87
2023-03-07T13:00:32.965Z,1.63
2023-03-07T13:03:10.932Z,1.87
2023-03-07T13:05:45.212Z,1.90
2023-03-07T13:08:25.015Z,1.87
2023-03-07T13:10:52.890Z,1.40
2023-03-07T13:13:46.170Z,1.27
2023-03-07T13:16:45.013Z,1.70
2023-03-07T13:19:35.195Z,1.90
2023-03-07T13:22:21.739Z,1.50
2023-03-07T13:25:03.849Z,1.30
2023-03-07T13:27:47.907Z,1.70
2023-03-07T13:30:32.482Z,1.97
2023-03-07T13:33:22.808Z,1.60
2023-03-07T13:35:56.871Z,1.70
2023-03-07T13:38:24.606Z,1.70
2023-03-07T13:41:00.431Z,1.90
2023-03-07T13:43:28.592Z,1.10
2023-03-07T13:46:26.226Z,1.63
2023-03-07T13:48:57.473Z,1.60
2023-03-07T13:51:29.490Z,1.90
2023-03-07T13:54:21.486Z,1.63
2023-03-07T13:56:49.762Z,2.00
2023-03-07T13:59:24.975Z,1.87
2023-03-07T14:02:03.081Z,1.60
2023-03-07T14:04:48.345Z,2.00
2023-03-07T14:07:37.408Z,1.40
2023-03-07T14:10:30.436Z,1.60
2023-03-07T14:13:26.887Z,1.70
2023-03-07T14:16:19.353Z,1.90
2023-03-07T14:19:06.597Z,1.60
2023-03-07T14:21:49.726Z,1.67
2023-03-07T14:24:52.601Z,1.90
2023-03-07T14:27:25.918Z,1.93
2023-03-07T14:30:10.128Z,1.93
2023-03-07T14:32:47.984Z,2.27
2023-03-07T14:35:39.571Z,1.57
2023-03-07T14:38:24.434Z,1.10
2023-03-07T14:44:39.029Z,2.00
2023-03-07T14:47:52.057Z,1.40
2023-03-07T14:50:54.091Z,1.60
2023-03-07T14:53:53.194Z,1.80
2023-03-07T14:56:35.568Z,1.73
2023-03-07T14:59:05.952Z,1.10
2023-03-07T15:01:49.236Z,1.23
2023-03-07T15:04:31.883Z,1.80
2023-03-07T15:07:32.015Z,1.50
2023-03-07T15:09:59.821Z,1.53
2023-03-07T15:12:48.438Z,2.17
2023-03-07T15:15:27.510Z,2.00
2023-03-07T15:18:03.845Z,1.30
2023-03-07T15:23:28.964Z,1.60
2023-03-07T15:26:23.293Z,2.20
2023-03-07T15:29:00.676Z,1.33
2023-03-07T15:31:54.258Z,1.60
2023-03-07T15:37:31.778Z,2.13
2023-03-07T15:40:09.410Z,1.80
2023-03-07T15:43:04.455Z,1.87
2023-03-07T15:45:44.125Z,2.00
2023-03-07T15:48:31.092Z,1.90
2023-03-07T15:51:07.671Z,1.77
2023-03-07T15:53:43.740Z,2.10
2023-03-07T15:57:02.162Z,1.80
2023-03-07T15:59:38.577Z,1.63
2023-03-07T16:02:38.418Z,1.47
2023-03-07T16:05:23.212Z,1.80
2023-03-07T16:08:04.798Z,2.07
2023-03-07T16:10:34.781Z,1.13
2023-03-07T16:13:06.136Z,1.77
2023-03-07T16:15:35.301Z,1.93
2023-03-07T16:18:07.825Z,2.17
2023-03-07T16:20:37.178Z,2.23
2023-03-07T16:23:11.572Z,2.10
2023-03-07T16:25:40.160Z,2.30
2023-03-07T16:28:11.042Z,1.77
2023-03-07T16:30:45.909Z,2.27
2023-03-07T16:33:15.251Z,1.73
2023-03-07T16:35:42.858Z,2.43
2023-03-07T16:38:11.054Z,2.47
2023-03-07T16:40:43.509Z,2.60
2023-03-07T16:43:34.942Z,2.13
2023-03-07T16:46:08.108Z,2.40
2023-03-07T16:48:38.129Z,2.77
2023-03-07T16:51:07.212Z,2.40
2023-03-07T16:53:34.704Z,2.40
2023-03-07T16:56:04.056Z,2.47
2023-03-07T16:58:37.129Z,2.47
2023-03-07T17:01:06.042Z,2.23
2023-03-07T17:03:33.573Z,2.10
2023-03-07T17:06:02.414Z,2.60
2023-03-07T17:08:29.918Z,2.90
2023-03-07T17:10:59.408Z,2.57
2023-03-07T17:13:29.328Z,2.80
2023-03-07T17:15:56.750Z,2.80
2023-03-07T17:18:27.116Z,2.20
2023-03-07T17:21:02.018Z,2.10
2023-03-07T17:23:29.511Z,2.30
2023-03-07T17:25:57.166Z,2.00
2023-03-07T17:28:29.569Z,2.30
2023-03-07T17:30:57.289Z,2.20
2023-03-07T17:33:29.426Z,2.03
2023-03-07T17:35:58.394Z,2.07
2023-03-07T17:38:26.018Z,2.13
2023-03-07T17:40:57.428Z,2.30
2023-03-07T17:43:34.345Z,2.00
2023-03-07T17:46:14.177Z,1.93
2023-03-07T17:48:45.618Z,2.10
2023-03-07T17:51:16.064Z,1.80
2023-03-07T17:53:43.931Z,1.80
2023-03-07T17:56:17.871Z,1.40
2023-03-07T17:58:46.424Z,1.77
2023-03-07T18:01:15.292Z,1.63
2023-03-07T18:03:43.862Z,1.47
2023-03-07T18:06:16.447Z,1.77
2023-03-07T18:08:44.765Z,1.57
2023-03-07T18:11:13.132Z,1.40
2023-03-07T18:13:44.570Z,1.90
2023-03-07T18:16:20.884Z,1.50
2023-03-07T18:18:59.328Z,1.70
2023-03-07T18:21:30.668Z,1.63
2023-03-07T18:23:58.324Z,1.70
2023-03-07T18:26:25.937Z,1.67
2023-03-07T18:28:55.182Z,1.23
2023-03-07T18:31:25.341Z,1.30
2023-03-07T18:33:54.658Z,1.60
2023-03-07T18:36:27.572Z,1.53
2023-03-07T18:38:59.204Z,1.10
2023-03-07T18:41:32.593Z,1.17
2023-03-07T18:44:00.983Z,1.00
2023-03-07T18:46:33.310Z,1.57
2023-03-07T18:49:01.778Z,1.50
2023-03-07T18:51:29.872Z,2.00
2023-03-07T18:54:00.655Z,1.30
2023-03-07T18:56:31.853Z,1.33
2023-03-07T18:59:02.969Z,1.57
2023-03-07T19:01:32.928Z,1.47
2023-03-07T19:04:03.570Z,1.80
2023-03-07T19:06:37.189Z,1.70
2023-03-07T19:09:05.179Z,1.30
2023-03-07T19:11:34.077Z,1.23
2023-03-07T19:14:06.225Z,1.20
2023-03-07T19:16:34.947Z,1.30
2023-03-07T19:19:03.930Z,1.20
2023-03-07T19:21:32.088Z,0.90
2023-03-07T19:24:02.355Z,1.13
2023-03-07T19:26:32.527Z,1.37
2023-03-07T19:29:02.589Z,1.50
2023-03-07T19:31:33.499Z,1.27
2023-03-07T19:34:05.241Z,1.20
2023-03-07T19:36:35.753Z,1.63
2023-03-07T19:39:04.534Z,1.47
2023-03-07T19:41:34.051Z,1.50
2023-03-07T19:44:02.070Z,1.60
2023-03-07T19:46:30.572Z,1.20
2023-03-07T19:48:58.601Z,1.03
2023-03-07T19:51:27.377Z,1.17
2023-03-07T19:53:57.365Z,1.80
2023-03-07T19:56:31.250Z,1.30
2023-03-07T19:59:01.041Z,1.60
2023-03-07T20:01:32.286Z,2.00
2023-03-07T20:04:00.102Z,1.97
2023-03-07T20:06:31.295Z,1.87
2023-03-07T20:09:02.960Z,2.10
2023-03-07T20:11:35.752Z,2.07
2023-03-07T20:14:05.303Z,1.60
2023-03-07T20:16:34.686Z,1.93
2023-03-07T20:19:05.860Z,1.87
2023-03-07T20:21:39.685Z,2.37
2023-03-07T20:24:08.781Z,1.60
2023-03-07T20:26:40.111Z,0.83
2023-03-07T20:29:11.962Z,2.37
2023-03-07T20:31:42.783Z,2.20
2023-03-07T20:34:12.235Z,2.00
2023-03-07T20:36:43.269Z,2.53
2023-03-07T20:39:16.963Z,2.43
2023-03-07T20:41:47.511Z,1.73
2023-03-07T20:44:17.355Z,2.43
2023-03-07T20:46:49.988Z,1.43
2023-03-07T20:49:25.019Z,2.17
2023-03-07T20:54:39.250Z,2.53
2023-03-07T20:57:09.108Z,2.53
2023-03-07T20:59:43.889Z,1.97
2023-03-07T21:02:13.465Z,1.80
2023-03-07T21:04:49.712Z,1.87
2023-03-07T21:07:29.528Z,2.03
2023-03-07T21:10:15.211Z,2.03
2023-03-07T21:12:51.118Z,1.87
2023-03-07T21:15:31.894Z,2.60
2023-03-07T21:18:05.487Z,2.43
2023-03-07T21:23:17.464Z,3.77
2023-03-07T21:28:37.097Z,2.40
2023-03-07T21:31:25.534Z,2.50
2023-03-07T21:34:06.695Z,2.00
2023-03-07T21:36:48.844Z,2.40
2023-03-07T21:39:44.655Z,2.30
2023-03-07T21:45:05.320Z,1.60
2023-03-07T21:50:08.077Z,1.63
2023-03-07T21:52:36.813Z,2.40
2023-03-07T21:55:06.663Z,1.93
2023-03-07T21:57:36.256Z,1.60
2023-03-07T22:00:10.274Z,1.57
2023-03-07T22:02:42.489Z,2.20
2023-03-07T22:05:12.365Z,2.07
2023-03-07T22:07:46.252Z,2.47
2023-03-07T22:10:20.464Z,2.00
2023-03-07T22:12:51.374Z,1.90
2023-03-07T22:15:20.240Z,2.80
2023-03-07T22:18:09.491Z,2.67
2023-03-07T22:20:40.634Z,3.73
2023-03-07T22:23:13.999Z,3.83
2023-03-07T22:25:46.693Z,4.50
2023-03-07T22:28:21.128Z,3.77
2023-03-07T22:30:51.387Z,3.60
2023-03-07T22:33:21.581Z,4.30
2023-03-07T22:36:02.396Z,3.60
2023-03-07T22:38:35.701Z,3.43
2023-03-07T22:41:16.550Z,3.50
2023-03-07T22:43:46.009Z,3.57
2023-03-07T22:46:15.967Z,3.73
2023-03-07T22:48:51.956Z,2.50
2023-03-07T22:51:20.652Z,2.90
2023-03-07T22:53:49.623Z,2.60
2023-03-07T22:56:26.276Z,2.47
2023-03-07T22:58:57.389Z,2.53
2023-03-07T23:01:32.104Z,2.10
2023-03-07T23:04:03.707Z,2.63
2023-03-07T23:06:34.991Z,2.57
2023-03-07T23:09:08.085Z,2.07
2023-03-07T23:11:38.283Z,2.10
2023-03-07T23:14:07.424Z,1.43
2023-03-07T23:16:39.517Z,2.03
2023-03-07T23:19:09.170Z,1.70
2023-03-07T23:21:37.165Z,2.07
2023-03-07T23:24:12.553Z,1.70
2023-03-07T23:26:40.057Z,1.67
2023-03-07T23:29:10.879Z,2.00
2023-03-07T23:31:45.486Z,1.60
2023-03-07T23:34:19.890Z,1.90
2023-03-07T23:36:48.553Z,2.50
2023-03-07T23:39:18.080Z,2.57
2023-03-07T23:41:49.023Z,1.83
2023-03-07T23:44:22.603Z,2.03
2023-03-07T23:46:53.471Z,2.37
2023-03-07T23:49:22.890Z,1.83
2023-03-07T23:51:52.772Z,1.10
2023-03-07T23:54:23.106Z,2.07
2023-03-07T23:56:51.955Z,1.97
2023-03-07T23:59:19.720Z,2.40
